Time;durP1;ratioP1;P1;durP2;ratioP2;P2;SDS_P1;SDS_P2;PMS_P1;PMS_P2;Temp;Humidity;BMP_temperature;BMP_pressure;BME280_temperature;BME280_humidity;BME280_pressure;Samples;Min_cycle;Max_cycle;Signal;HPM_P1;HPM_P2
2024/03/30 00:01:35;;;;;;;12.05;9.05;;;;;;;;;;5011679;28;20144;-71
2024/03/30 00:04:01;;;;;;;10.90;8.52;;;;;;;;;;5013312;28;20045;-73
2024/03/30 00:06:28;;;;;;;10.80;8.68;;;;;;;;;;5013330;28;20030;-72
2024/03/30 00:08:54;;;;;;;12.65;8.32;;;;;;;;;;5013577;28;20469;-73
2024/03/30 00:11:20;;;;;;;10.50;8.50;;;;;;;;;;5013100;28;20491;-72
2024/03/30 00:13:46;;;;;;;11.73;8.13;;;;;;;;;;5013528;28;20029;-71
2024/03/30 00:16:12;;;;;;;9.52;8.25;;;;;;;;;;5012806;28;20101;-71
2024/03/30 00:18:39;;;;;;;8.60;7.70;;;;;;;;;;5012996;28;20128;-72
2024/03/30 00:21:05;;;;;;;8.90;8.00;;;;;;;;;;5015860;28;20024;-71
2024/03/30 00:23:31;;;;;;;10.60;8.35;;;;;;;;;;5015820;28;20038;-73
2024/03/30 00:25:57;;;;;;;9.18;7.53;;;;;;;;;;5014018;28;20077;-72
2024/03/30 00:28:24;;;;;;;9.57;8.00;;;;;;;;;;5011890;28;20026;-72
2024/03/30 00:30:50;;;;;;;11.48;8.15;;;;;;;;;;5011968;28;20384;-73
2024/03/30 00:33:16;;;;;;;11.65;9.05;;;;;;;;;;5011100;28;20018;-72
2024/03/30 00:35:43;;;;;;;9.38;8.38;;;;;;;;;;5012433;28;20018;-72
2024/03/30 00:38:09;;;;;;;11.02;8.32;;;;;;;;;;5012253;28;20122;-72
2024/03/30 00:40:35;;;;;;;14.13;9.40;;;;;;;;;;5012326;28;20099;-72
2024/03/30 00:43:02;;;;;;;9.25;8.35;;;;;;;;;;5011995;28;20097;-72
2024/03/30 00:45:28;;;;;;;10.05;8.20;;;;;;;;;;5011068;28;20240;-72
2024/03/30 00:47:54;;;;;;;9.98;8.15;;;;;;;;;;5012068;28;20368;-72
2024/03/30 00:50:20;;;;;;;10.07;9.05;;;;;;;;;;5011033;28;20320;-72
2024/03/30 00:52:46;;;;;;;9.18;7.95;;;;;;;;;;5011373;28;20382;-73
2024/03/30 00:55:12;;;;;;;9.85;8.20;;;;;;;;;;5011405;28;20396;-72
2024/03/30 00:57:42;;;;;;;9.23;8.23;;;;;;;;;;5011412;28;20499;-73
2024/03/30 01:00:10;;;;;;;9.98;8.25;;;;;;;;;;5011327;28;20033;-73
2024/03/30 01:02:38;;;;;;;10.85;8.75;;;;;;;;;;5012078;28;20045;-72
2024/03/30 01:05:04;;;;;;;10.00;8.95;;;;;;;;;;5010814;28;20061;-72
2024/03/30 01:07:30;;;;;;;10.57;9.13;;;;;;;;;;5011071;28;20033;-75
2024/03/30 01:09:56;;;;;;;9.95;8.80;;;;;;;;;;5012375;28;20101;-73
2024/03/30 01:12:22;;;;;;;9.77;8.32;;;;;;;;;;5010269;28;20508;-72
2024/03/30 01:14:48;;;;;;;10.18;7.97;;;;;;;;;;5010622;28;20502;-72
2024/03/30 01:17:16;;;;;;;12.43;8.75;;;;;;;;;;5010809;28;20034;-73
2024/03/30 01:19:42;;;;;;;9.75;7.78;;;;;;;;;;5012180;28;20060;-71
2024/03/30 01:22:08;;;;;;;16.00;7.22;;;;;;;;;;5011146;28;20485;-72
2024/03/30 01:24:34;;;;;;;9.73;7.95;;;;;;;;;;5012489;28;20081;-73
2024/03/30 01:27:02;;;;;;;8.70;7.80;;;;;;;;;;5012517;28;20022;-71
2024/03/30 01:29:28;;;;;;;7.82;7.00;;;;;;;;;;5011127;28;20053;-72
2024/03/30 01:31:54;;;;;;;9.70;7.75;;;;;;;;;;5012276;28;20026;-73
2024/03/30 01:34:21;;;;;;;11.88;8.63;;;;;;;;;;5013089;28;20473;-71
2024/03/30 01:36:47;;;;;;;10.15;8.40;;;;;;;;;;5013866;28;20022;-72
2024/03/30 01:39:13;;;;;;;10.00;8.98;;;;;;;;;;5011897;28;20372;-72
2024/03/30 01:41:39;;;;;;;9.75;8.02;;;;;;;;;;5011170;28;20491;-72
2024/03/30 01:44:05;;;;;;;9.98;7.22;;;;;;;;;;5011663;28;20432;-71
2024/03/30 01:46:33;;;;;;;10.95;8.18;;;;;;;;;;5011960;28;20125;-71
2024/03/30 01:49:02;;;;;;;11.40;8.65;;;;;;;;;;5011189;28;20034;-72
2024/03/30 01:51:28;;;;;;;9.38;7.75;;;;;;;;;;5012489;28;20022;-72
2024/03/30 01:53:54;;;;;;;10.52;8.80;;;;;;;;;;5012484;28;20101;-72
2024/03/30 01:56:21;;;;;;;11.77;8.80;;;;;;;;;;5012379;28;20018;-71
2024/03/30 01:58:49;;;;;;;10.65;7.68;;;;;;;;;;5012806;28;20066;-72
2024/03/30 02:01:15;;;;;;;10.25;8.63;;;;;;;;;;5013200;28;20026;-72
2024/03/30 02:03:42;;;;;;;9.10;7.93;;;;;;;;;;5015313;28;20042;-72
2024/03/30 02:06:08;;;;;;;8.23;7.38;;;;;;;;;;5014353;28;20030;-72
2024/03/30 02:08:35;;;;;;;8.02;7.20;;;;;;;;;;5014105;28;20036;-72
2024/03/30 02:11:02;;;;;;;8.57;7.45;;;;;;;;;;5014246;28;20026;-72
2024/03/30 02:13:29;;;;;;;12.00;7.55;;;;;;;;;;5016985;28;20108;-72
2024/03/30 02:15:55;;;;;;;11.13;7.93;;;;;;;;;;5015806;28;20018;-73
2024/03/30 02:18:21;;;;;;;9.63;7.72;;;;;;;;;;5018719;28;20057;-73
2024/03/30 02:20:47;;;;;;;10.93;7.07;;;;;;;;;;5016411;28;20502;-74
2024/03/30 02:23:14;;;;;;;9.00;7.13;;;;;;;;;;5017032;28;20026;-73
2024/03/30 02:25:40;;;;;;;7.80;6.60;;;;;;;;;;5018675;28;20026;-72
2024/03/30 02:28:07;;;;;;;7.15;6.30;;;;;;;;;;5020249;28;20026;-72
2024/03/30 02:30:33;;;;;;;7.68;5.90;;;;;;;;;;5019062;28;20021;-73
2024/03/30 02:32:59;;;;;;;8.10;6.45;;;;;;;;;;5016065;28;20057;-72
2024/03/30 02:35:26;;;;;;;10.25;6.68;;;;;;;;;;5018429;28;20048;-74
2024/03/30 02:37:53;;;;;;;9.07;6.63;;;;;;;;;;5017025;28;20026;-73
2024/03/30 02:40:19;;;;;;;8.52;6.28;;;;;;;;;;5015959;28;20033;-73
2024/03/30 02:42:45;;;;;;;9.20;7.07;;;;;;;;;;5016638;28;20036;-73
2024/03/30 02:45:12;;;;;;;12.57;6.95;;;;;;;;;;5017849;28;20557;-73
2024/03/30 02:47:38;;;;;;;7.90;6.70;;;;;;;;;;5021783;28;20026;-74
2024/03/30 02:50:04;;;;;;;8.10;6.25;;;;;;;;;;5017044;28;20490;-72
2024/03/30 02:52:30;;;;;;;8.75;6.80;;;;;;;;;;5014089;28;20026;-72
2024/03/30 02:54:56;;;;;;;9.15;6.93;;;;;;;;;;5016504;28;20107;-73
2024/03/30 02:57:22;;;;;;;9.75;7.03;;;;;;;;;;5017378;28;20030;-72
2024/03/30 02:59:48;;;;;;;10.57;7.43;;;;;;;;;;5019096;28;20026;-72
2024/03/30 03:02:14;;;;;;;12.52;7.50;;;;;;;;;;5015806;28;20097;-72
2024/03/30 03:04:40;;;;;;;9.73;8.35;;;;;;;;;;5015023;28;20044;-72
2024/03/30 03:07:07;;;;;;;12.23;8.13;;;;;;;;;;5014825;28;20080;-72
2024/03/30 03:09:33;;;;;;;9.98;8.50;;;;;;;;;;5016686;28;20054;-70
2024/03/30 03:11:59;;;;;;;10.85;8.82;;;;;;;;;;5019802;28;20022;-72
2024/03/30 03:14:25;;;;;;;9.15;7.93;;;;;;;;;;5022041;28;20029;-72
2024/03/30 03:16:51;;;;;;;10.60;7.88;;;;;;;;;;5019369;28;20049;-72
2024/03/30 03:19:17;;;;;;;13.93;9.10;;;;;;;;;;5018447;28;20117;-72
2024/03/30 03:21:43;;;;;;;11.32;7.65;;;;;;;;;;5018556;28;20030;-72
2024/03/30 03:24:09;;;;;;;11.80;8.95;;;;;;;;;;5018239;28;20030;-72
2024/03/30 03:26:35;;;;;;;9.45;7.90;;;;;;;;;;5020518;28;20050;-71
2024/03/30 03:29:01;;;;;;;9.45;7.68;;;;;;;;;;5019685;28;20034;-72
2024/03/30 03:31:27;;;;;;;12.52;8.00;;;;;;;;;;5020155;28;20025;-72
2024/03/30 03:33:53;;;;;;;8.82;7.55;;;;;;;;;;5020465;28;20026;-71
2024/03/30 03:36:19;;;;;;;9.65;7.55;;;;;;;;;;5018924;28;20099;-73
2024/03/30 03:38:45;;;;;;;10.18;7.47;;;;;;;;;;5015185;28;20052;-71
2024/03/30 03:41:11;;;;;;;10.73;7.55;;;;;;;;;;5014110;28;20026;-72
2024/03/30 03:43:40;;;;;;;11.15;6.88;;;;;;;;;;5014254;28;20451;-72
2024/03/30 03:46:06;;;;;;;10.35;7.00;;;;;;;;;;5013378;28;20030;-72
2024/03/30 03:48:32;;;;;;;6.90;5.90;;;;;;;;;;5013459;28;20026;-72
2024/03/30 03:50:58;;;;;;;9.30;6.50;;;;;;;;;;5012325;28;20361;-73
2024/03/30 03:53:24;;;;;;;7.88;6.57;;;;;;;;;;5012407;28;20030;-71
2024/03/30 03:55:50;;;;;;;9.63;7.28;;;;;;;;;;5012405;28;20436;-72
2024/03/30 03:58:16;;;;;;;9.77;5.80;;;;;;;;;;5013275;28;20531;-73
2024/03/30 04:00:42;;;;;;;8.38;5.50;;;;;;;;;;5012226;28;20502;-71
2024/03/30 04:03:11;;;;;;;7.43;5.75;;;;;;;;;;5011498;28;20495;-72
2024/03/30 04:05:37;;;;;;;8.98;6.13;;;;;;;;;;5013129;28;20421;-73
2024/03/30 04:08:04;;;;;;;7.68;5.78;;;;;;;;;;5013264;28;20095;-73
2024/03/30 04:10:30;;;;;;;11.43;6.45;;;;;;;;;;5014728;28;20022;-71
2024/03/30 04:12:56;;;;;;;7.88;4.95;;;;;;;;;;5015144;28;20022;-72
2024/03/30 04:15:22;;;;;;;9.40;5.70;;;;;;;;;;5015602;28;20032;-72
2024/03/30 04:17:48;;;;;;;6.78;5.22;;;;;;;;;;5014968;28;20401;-72
2024/03/30 04:20:14;;;;;;;11.07;5.93;;;;;;;;;;5014393;28;20029;-72
2024/03/30 04:22:40;;;;;;;12.77;6.10;;;;;;;;;;5014236;28;20049;-72
2024/03/30 04:25:07;;;;;;;8.80;5.57;;;;;;;;;;5013574;28;20112;-73
2024/03/30 04:27:34;;;;;;;12.57;6.15;;;;;;;;;;5014675;28;20030;-72
2024/03/30 04:30:00;;;;;;;13.05;6.30;;;;;;;;;;5016051;28;20030;-72
2024/03/30 04:32:26;;;;;;;12.02;6.13;;;;;;;;;;5017638;28;20064;-71
2024/03/30 04:34:53;;;;;;;15.10;7.07;;;;;;;;;;5015695;28;20029;-72
2024/03/30 04:37:19;;;;;;;11.75;6.15;;;;;;;;;;5018711;28;20025;-72
2024/03/30 04:39:45;;;;;;;11.93;6.43;;;;;;;;;;5019171;28;20038;-70
2024/03/30 04:42:11;;;;;;;10.35;5.55;;;;;;;;;;5018697;28;20033;-73
2024/03/30 04:44:37;;;;;;;17.52;6.40;;;;;;;;;;5018572;28;20030;-73
2024/03/30 04:47:04;;;;;;;17.35;6.00;;;;;;;;;;5019562;28;20088;-73
2024/03/30 04:49:30;;;;;;;11.55;5.82;;;;;;;;;;5022473;28;20030;-72
2024/03/30 04:51:56;;;;;;;15.60;6.10;;;;;;;;;;5022786;28;20030;-72
2024/03/30 04:54:22;;;;;;;12.25;5.47;;;;;;;;;;5022879;28;20022;-71
2024/03/30 04:56:48;;;;;;;11.55;6.07;;;;;;;;;;5022434;28;20018;-72
2024/03/30 04:59:14;;;;;;;15.60;7.30;;;;;;;;;;5018532;28;20033;-72
2024/03/30 05:01:40;;;;;;;15.32;6.40;;;;;;;;;;5014595;28;20076;-72
2024/03/30 05:04:06;;;;;;;11.95;6.53;;;;;;;;;;5015219;28;20033;-72
2024/03/30 05:06:32;;;;;;;15.35;6.85;;;;;;;;;;5017550;28;20054;-72
2024/03/30 05:08:58;;;;;;;14.18;5.78;;;;;;;;;;5016091;28;20033;-72
2024/03/30 05:11:24;;;;;;;13.35;6.32;;;;;;;;;;5013991;28;20033;-74
2024/03/30 05:13:51;;;;;;;17.30;7.05;;;;;;;;;;5012563;28;20034;-73
2024/03/30 05:16:17;;;;;;;24.15;7.72;;;;;;;;;;5013925;28;20022;-73
2024/03/30 05:18:43;;;;;;;15.98;6.07;;;;;;;;;;5014403;28;20033;-72
2024/03/30 05:21:09;;;;;;;17.58;6.68;;;;;;;;;;5017264;28;20029;-71
2024/03/30 05:23:37;;;;;;;10.73;5.85;;;;;;;;;;5017742;28;20022;-72
2024/03/30 05:26:04;;;;;;;10.00;5.95;;;;;;;;;;5020478;28;20041;-72
2024/03/30 05:28:33;;;;;;;15.82;7.07;;;;;;;;;;5018580;28;20025;-72
2024/03/30 05:31:02;;;;;;;12.15;7.00;;;;;;;;;;5017258;28;20131;-71
2024/03/30 05:33:28;;;;;;;13.88;6.85;;;;;;;;;;5018384;28;20464;-71
2024/03/30 05:35:55;;;;;;;12.52;6.63;;;;;;;;;;5016785;28;20018;-70
2024/03/30 05:38:21;;;;;;;13.02;7.45;;;;;;;;;;5012859;28;20030;-72
2024/03/30 05:40:48;;;;;;;19.90;7.10;;;;;;;;;;5013159;28;20488;-71
2024/03/30 05:43:14;;;;;;;16.95;6.75;;;;;;;;;;5012424;28;20026;-72
2024/03/30 05:45:41;;;;;;;12.30;6.57;;;;;;;;;;5012258;28;20034;-72
2024/03/30 05:48:07;;;;;;;15.73;6.15;;;;;;;;;;5012362;28;20366;-72
2024/03/30 05:50:34;;;;;;;11.98;6.93;;;;;;;;;;5012851;28;20022;-70
2024/03/30 05:53:01;;;;;;;15.43;6.28;;;;;;;;;;5016091;28;20026;-72
2024/03/30 05:55:27;;;;;;;11.98;5.57;;;;;;;;;;5018216;28;20014;-71
2024/03/30 05:58:02;;;;;;;9.57;5.43;;;;;;;;;;5016756;28;20026;-72
2024/03/30 06:00:28;;;;;;;10.57;5.97;;;;;;;;;;5021206;28;20068;-72
2024/03/30 06:02:56;;;;;;;13.55;6.38;;;;;;;;;;5022016;28;20050;-73
2024/03/30 06:05:22;;;;;;;13.82;6.55;;;;;;;;;;5020168;28;20026;-72
2024/03/30 06:07:48;;;;;;;15.10;6.20;;;;;;;;;;5019597;28;20033;-72
2024/03/30 06:10:14;;;;;;;9.05;5.50;;;;;;;;;;5017906;28;20029;-72
2024/03/30 06:12:40;;;;;;;12.55;5.38;;;;;;;;;;5016500;28;20017;-73
2024/03/30 06:15:06;;;;;;;11.75;5.13;;;;;;;;;;5016602;28;20026;-72
2024/03/30 06:17:39;;;;;;;15.02;5.05;;;;;;;;;;5020111;28;20026;-73
2024/03/30 06:20:06;;;;;;;17.52;5.85;;;;;;;;;;5020660;28;20042;-72
2024/03/30 06:22:35;;;;;;;14.13;5.32;;;;;;;;;;5020120;28;20113;-71
2024/03/30 06:25:02;;;;;;;15.05;5.68;;;;;;;;;;5020679;28;20076;-71
2024/03/30 06:27:28;;;;;;;15.65;5.85;;;;;;;;;;5019113;28;20025;-73
2024/03/30 06:29:55;;;;;;;13.25;6.18;;;;;;;;;;5019522;28;20030;-72
2024/03/30 06:32:21;;;;;;;19.55;6.47;;;;;;;;;;5018599;28;20477;-73
2024/03/30 06:34:50;;;;;;;19.38;5.07;;;;;;;;;;5018792;28;20026;-73
2024/03/30 06:37:16;;;;;;;11.13;5.57;;;;;;;;;;5019463;28;20054;-72
2024/03/30 06:45:12;;;;;;;21.27;5.50;;;;;;;;;;5014812;28;20049;-71
2024/03/30 06:47:38;;;;;;;13.48;5.40;;;;;;;;;;5013995;28;20044;-73
2024/03/30 06:50:04;;;;;;;22.92;6.35;;;;;;;;;;5014178;28;20044;-72
2024/03/30 06:52:30;;;;;;;22.27;6.25;;;;;;;;;;5012226;28;20025;-71
2024/03/30 06:54:57;;;;;;;15.80;5.50;;;;;;;;;;5014151;28;20409;-72
2024/03/30 06:57:23;;;;;;;21.15;5.00;;;;;;;;;;5012838;28;20022;-72
2024/03/30 06:59:49;;;;;;;16.75;5.28;;;;;;;;;;5014536;28;20076;-73
2024/03/30 07:02:17;;;;;;;17.17;5.35;;;;;;;;;;5013780;28;20018;-72
2024/03/30 07:04:43;;;;;;;13.13;5.05;;;;;;;;;;5014371;28;20014;-72
2024/03/30 07:07:09;;;;;;;24.42;5.93;;;;;;;;;;5014452;28;20050;-72
2024/03/30 07:09:35;;;;;;;18.67;5.63;;;;;;;;;;5015156;28;20079;-71
2024/03/30 07:12:01;;;;;;;15.93;5.50;;;;;;;;;;5013935;28;20439;-73
2024/03/30 07:14:27;;;;;;;17.90;4.75;;;;;;;;;;5014227;28;20440;-72
2024/03/30 07:16:55;;;;;;;18.25;5.38;;;;;;;;;;5010864;28;20026;-73
2024/03/30 07:19:21;;;;;;;19.23;4.53;;;;;;;;;;4994642;28;20080;-71
2024/03/30 07:21:47;;;;;;;21.02;5.38;;;;;;;;;;5009917;28;20026;-71
2024/03/30 07:24:13;;;;;;;25.13;5.60;;;;;;;;;;4998170;28;20021;-71
2024/03/30 07:26:39;;;;;;;18.50;4.85;;;;;;;;;;5010460;28;20026;-73
2024/03/30 07:29:05;;;;;;;19.92;4.75;;;;;;;;;;5001277;28;20026;-71
2024/03/30 07:31:32;;;;;;;23.50;5.07;;;;;;;;;;5009225;28;20022;-73
2024/03/30 07:33:58;;;;;;;18.50;5.30;;;;;;;;;;4997801;28;20448;-72
2024/03/30 07:36:24;;;;;;;23.88;6.25;;;;;;;;;;5005998;28;20411;-71
2024/03/30 07:38:50;;;;;;;20.42;5.00;;;;;;;;;;5006383;28;20041;-72
2024/03/30 07:41:16;;;;;;;14.25;4.20;;;;;;;;;;4999047;28;20033;-72
2024/03/30 07:43:42;;;;;;;17.95;5.40;;;;;;;;;;5011272;28;20022;-72
2024/03/30 07:46:08;;;;;;;22.85;5.53;;;;;;;;;;5000413;28;20041;-72
2024/03/30 07:48:34;;;;;;;21.52;6.45;;;;;;;;;;5003635;28;20026;-71
2024/03/30 07:51:01;;;;;;;23.92;5.68;;;;;;;;;;4993842;28;20026;-73
2024/03/30 07:53:27;;;;;;;21.33;4.28;;;;;;;;;;5013476;28;20026;-71
2024/03/30 07:55:54;;;;;;;25.50;4.97;;;;;;;;;;5013413;28;20018;-71
2024/03/30 07:58:20;;;;;;;21.73;5.35;;;;;;;;;;5013677;28;20042;-72
2024/03/30 08:00:46;;;;;;;22.23;6.30;;;;;;;;;;5013195;28;20107;-72
2024/03/30 08:03:12;;;;;;;38.08;7.10;;;;;;;;;;5010921;28;20042;-71
2024/03/30 08:05:38;;;;;;;23.33;4.70;;;;;;;;;;5012828;28;20052;-72
2024/03/30 08:08:05;;;;;;;22.35;5.45;;;;;;;;;;5011314;28;20056;-71
2024/03/30 08:10:31;;;;;;;17.80;6.28;;;;;;;;;;5012867;28;20026;-71
2024/03/30 08:12:57;;;;;;;22.23;4.90;;;;;;;;;;5012172;28;20030;-71
2024/03/30 08:15:23;;;;;;;34.15;5.45;;;;;;;;;;5012716;28;20061;-71
2024/03/30 08:17:49;;;;;;;30.35;5.70;;;;;;;;;;5013473;28;20037;-72
2024/03/30 08:20:15;;;;;;;21.15;5.72;;;;;;;;;;5012403;28;20034;-71
2024/03/30 08:22:41;;;;;;;47.83;7.10;;;;;;;;;;5012311;28;20041;-71
2024/03/30 08:25:07;;;;;;;28.58;4.93;;;;;;;;;;5013201;28;20029;-72
2024/03/30 08:27:33;;;;;;;24.08;4.47;;;;;;;;;;5012808;28;20030;-72
2024/03/30 08:30:00;;;;;;;24.05;4.57;;;;;;;;;;5011201;28;20044;-72
2024/03/30 08:32:26;;;;;;;21.88;4.65;;;;;;;;;;5012543;28;20040;-72
2024/03/30 08:34:52;;;;;;;33.72;6.78;;;;;;;;;;5012802;28;20496;-72
2024/03/30 08:37:18;;;;;;;24.52;5.53;;;;;;;;;;5021314;28;20028;-71
2024/03/30 08:39:44;;;;;;;40.35;6.43;;;;;;;;;;5018866;28;20038;-72
2024/03/30 08:42:10;;;;;;;29.52;5.15;;;;;;;;;;5010973;28;20053;-72
2024/03/30 08:44:36;;;;;;;32.78;6.25;;;;;;;;;;5012790;28;20037;-72
2024/03/30 08:47:02;;;;;;;33.65;5.85;;;;;;;;;;5012879;28;20084;-71
2024/03/30 08:49:28;;;;;;;31.17;5.53;;;;;;;;;;5012304;28;20500;-72
2024/03/30 08:51:55;;;;;;;24.17;5.70;;;;;;;;;;5011683;28;20067;-72
2024/03/30 08:54:21;;;;;;;28.23;5.50;;;;;;;;;;5012350;28;20038;-73
2024/03/30 08:56:47;;;;;;;23.33;5.93;;;;;;;;;;5013053;28;20148;-72
2024/03/30 08:59:13;;;;;;;26.58;6.32;;;;;;;;;;5013227;28;20479;-74
2024/03/30 09:01:39;;;;;;;26.65;5.97;;;;;;;;;;5012449;28;20026;-71
2024/03/30 09:04:05;;;;;;;34.80;5.63;;;;;;;;;;5010823;28;20049;-72
2024/03/30 09:06:31;;;;;;;27.85;6.22;;;;;;;;;;5012165;28;20026;-73
2024/03/30 09:08:57;;;;;;;35.38;6.15;;;;;;;;;;5013066;28;20026;-72
2024/03/30 09:11:23;;;;;;;33.85;6.97;;;;;;;;;;5013035;28;20269;-71
2024/03/30 09:13:49;;;;;;;29.17;5.18;;;;;;;;;;5011746;28;20496;-72
2024/03/30 09:16:15;;;;;;;30.95;4.82;;;;;;;;;;5012995;28;20111;-72
2024/03/30 09:18:41;;;;;;;33.22;5.97;;;;;;;;;;5012657;28;20037;-72
2024/03/30 09:21:07;;;;;;;31.70;5.25;;;;;;;;;;5012056;28;20045;-72
2024/03/30 09:23:34;;;;;;;28.13;5.13;;;;;;;;;;5010710;28;20026;-72
2024/03/30 09:26:00;;;;;;;22.27;4.90;;;;;;;;;;5015216;28;20041;-73
2024/03/30 09:28:26;;;;;;;28.02;5.63;;;;;;;;;;5016798;28;20022;-73
2024/03/30 09:30:52;;;;;;;25.80;5.30;;;;;;;;;;5017716;28;20018;-73
2024/03/30 09:33:18;;;;;;;26.90;4.85;;;;;;;;;;5016660;28;20104;-72
2024/03/30 09:35:44;;;;;;;22.98;5.18;;;;;;;;;;5017768;28;20049;-72
2024/03/30 09:38:10;;;;;;;25.92;6.47;;;;;;;;;;5017432;28;20480;-73
2024/03/30 09:40:36;;;;;;;17.92;4.25;;;;;;;;;;5016022;28;20034;-71
2024/03/30 09:43:02;;;;;;;40.55;5.57;;;;;;;;;;5014025;28;20111;-72
2024/03/30 09:45:29;;;;;;;27.17;5.05;;;;;;;;;;5014465;28;20068;-71
2024/03/30 09:48:00;;;;;;;28.85;5.03;;;;;;;;;;5015126;28;20017;-73
2024/03/30 09:50:26;;;;;;;;;;;;;;;;;;5016064;28;20029;-73
2024/03/30 09:52:53;;;;;;;23.15;4.97;;;;;;;;;;5015380;28;20434;-71
2024/03/30 09:55:20;;;;;;;38.20;5.18;;;;;;;;;;5015402;28;20076;-73
2024/03/30 09:57:48;;;;;;;26.02;5.40;;;;;;;;;;5015656;28;20439;-72
2024/03/30 10:00:14;;;;;;;26.40;5.53;;;;;;;;;;5015526;28;20444;-72
2024/03/30 10:02:41;;;;;;;25.52;5.55;;;;;;;;;;5015757;28;20030;-71
2024/03/30 10:05:09;;;;;;;18.33;4.60;;;;;;;;;;5015797;28;20022;-72
2024/03/30 10:07:41;;;;;;;23.90;4.97;;;;;;;;;;5015671;28;20391;-71
2024/03/30 10:10:07;;;;;;;;;;;;;;;;;;5015375;28;20535;-72
2024/03/30 10:12:38;;;;;;;30.30;6.28;;;;;;;;;;5014958;28;19905;-72
2024/03/30 10:15:08;;;;;;;32.88;5.65;;;;;;;;;;5015068;28;20022;-73
2024/03/30 10:17:34;;;;;;;29.67;4.70;;;;;;;;;;5013516;28;20029;-72
2024/03/30 10:20:02;;;;;;;26.80;6.53;;;;;;;;;;5013502;28;20026;-72
2024/03/30 10:22:28;;;;;;;21.52;5.00;;;;;;;;;;5013108;28;20029;-72
2024/03/30 10:24:56;;;;;;;24.55;5.25;;;;;;;;;;5013473;28;20026;-71
2024/03/30 10:27:22;;;;;;;25.98;5.50;;;;;;;;;;5015207;28;20029;-71
2024/03/30 10:29:48;;;;;;;28.98;4.70;;;;;;;;;;5015009;28;20025;-72
2024/03/30 10:32:14;;;;;;;35.55;5.70;;;;;;;;;;5014681;28;20100;-73
2024/03/30 10:34:40;;;;;;;32.88;6.05;;;;;;;;;;5014824;28;20065;-73
2024/03/30 10:37:09;;;;;;;46.08;5.18;;;;;;;;;;5014436;28;20026;-71
2024/03/30 10:39:35;;;;;;;25.63;5.28;;;;;;;;;;5014317;28;20064;-72
2024/03/30 10:42:01;;;;;;;28.45;4.97;;;;;;;;;;5012590;28;20026;-72
2024/03/30 10:44:28;;;;;;;31.95;6.57;;;;;;;;;;5012315;28;20045;-71
2024/03/30 10:46:55;;;;;;;31.60;5.50;;;;;;;;;;5013779;28;20496;-72
2024/03/30 10:49:23;;;;;;;32.60;5.78;;;;;;;;;;5013182;28;20030;-72
2024/03/30 10:51:49;;;;;;;29.40;5.95;;;;;;;;;;5015910;28;20018;-71
2024/03/30 10:54:19;;;;;;;27.88;5.32;;;;;;;;;;5014451;28;20026;-72
2024/03/30 10:56:51;;;;;;;27.17;5.70;;;;;;;;;;5012777;28;20140;-72
2024/03/30 10:59:18;;;;;;;32.08;6.47;;;;;;;;;;5014737;28;20052;-74
2024/03/30 11:01:48;;;;;;;49.75;6.45;;;;;;;;;;5012098;28;20053;-72
2024/03/30 11:04:16;;;;;;;32.22;7.00;;;;;;;;;;5014388;28;20401;-72
2024/03/30 11:06:43;;;;;;;30.77;5.07;;;;;;;;;;5013355;28;20041;-73
2024/03/30 11:09:10;;;;;;;31.50;6.65;;;;;;;;;;5013000;28;20113;-74
2024/03/30 11:11:37;;;;;;;28.15;5.22;;;;;;;;;;5013925;28;20056;-73
2024/03/30 11:14:03;;;;;;;25.92;6.47;;;;;;;;;;5014509;28;20041;-73
2024/03/30 11:16:30;;;;;;;28.45;5.38;;;;;;;;;;5012462;28;20033;-72
2024/03/30 11:19:06;;;;;;;21.63;5.57;;;;;;;;;;5013559;28;20083;-72
2024/03/30 11:21:38;;;;;;;29.80;4.82;;;;;;;;;;5013723;28;20465;-73
2024/03/30 11:24:06;;;;;;;37.60;7.13;;;;;;;;;;5014152;28;20045;-72
2024/03/30 11:26:33;;;;;;;30.67;6.05;;;;;;;;;;5012602;28;20389;-71
2024/03/30 11:29:11;;;;;;;32.75;6.35;;;;;;;;;;5012701;28;20026;-71
2024/03/30 11:31:43;;;;;;;29.50;5.65;;;;;;;;;;5014052;28;20024;-72
2024/03/30 11:34:31;;;;;;;32.95;5.22;;;;;;;;;;5014487;28;20089;-72
2024/03/30 11:37:03;;;;;;;35.90;6.75;;;;;;;;;;5015397;28;20421;-72
2024/03/30 11:39:33;;;;;;;28.95;5.60;;;;;;;;;;5015508;28;20271;-71
2024/03/30 11:42:03;;;;;;;37.47;6.97;;;;;;;;;;5014410;28;20030;-71
2024/03/30 11:44:29;;;;;;;43.80;7.07;;;;;;;;;;5012646;28;20029;-73
2024/03/30 11:46:56;;;;;;;31.58;6.18;;;;;;;;;;5013819;28;20033;-71
2024/03/30 11:49:23;;;;;;;25.25;5.68;;;;;;;;;;5011089;28;20037;-71
2024/03/30 11:51:50;;;;;;;37.17;7.05;;;;;;;;;;5011164;28;20121;-73
2024/03/30 11:54:26;;;;;;;34.65;5.20;;;;;;;;;;5012828;28;20030;-72
2024/03/30 11:56:55;;;;;;;41.45;6.00;;;;;;;;;;5012825;28;20022;-71
2024/03/30 11:59:21;;;;;;;30.45;6.05;;;;;;;;;;5012982;28;20124;-72
2024/03/30 12:01:47;;;;;;;32.40;5.53;;;;;;;;;;5013179;28;20034;-72
2024/03/30 12:04:13;;;;;;;27.55;6.63;;;;;;;;;;5013356;28;20033;-72
2024/03/30 12:06:41;;;;;;;30.33;6.22;;;;;;;;;;5013075;28;20037;-72
2024/03/30 12:09:08;;;;;;;48.20;6.28;;;;;;;;;;5012998;28;20104;-72
2024/03/30 12:11:34;;;;;;;29.20;5.35;;;;;;;;;;5012761;28;20557;-72
2024/03/30 12:14:00;;;;;;;21.83;4.80;;;;;;;;;;5012712;28;20026;-72
2024/03/30 12:16:26;;;;;;;35.65;6.32;;;;;;;;;;5013867;28;20017;-72
2024/03/30 12:18:52;;;;;;;29.70;6.90;;;;;;;;;;5011534;28;20026;-72
2024/03/30 12:21:18;;;;;;;42.92;7.40;;;;;;;;;;5011892;28;20026;-72
2024/03/30 12:23:44;;;;;;;27.55;6.07;;;;;;;;;;5012608;28;20030;-72
2024/03/30 12:26:10;;;;;;;25.88;5.90;;;;;;;;;;5012345;28;20026;-70
2024/03/30 12:28:36;;;;;;;24.13;6.63;;;;;;;;;;5012034;28;20041;-71
2024/03/30 12:31:03;;;;;;;30.73;5.68;;;;;;;;;;5012389;28;20431;-72
2024/03/30 12:33:30;;;;;;;30.02;6.28;;;;;;;;;;5012172;28;20443;-73
2024/03/30 12:35:56;;;;;;;41.00;5.63;;;;;;;;;;5010603;28;20030;-72
2024/03/30 12:38:23;;;;;;;28.70;7.07;;;;;;;;;;5010868;28;20034;-72
2024/03/30 12:40:51;;;;;;;36.47;6.38;;;;;;;;;;5011721;28;20109;-72
2024/03/30 12:43:17;;;;;;;30.55;7.13;;;;;;;;;;5011937;28;20033;-73
2024/03/30 12:45:44;;;;;;;34.22;6.45;;;;;;;;;;5010377;28;20034;-72
2024/03/30 12:48:10;;;;;;;27.23;6.03;;;;;;;;;;5010564;28;20168;-71
2024/03/30 12:50:37;;;;;;;32.38;7.60;;;;;;;;;;5011825;28;20052;-72
2024/03/30 12:53:03;;;;;;;36.15;6.20;;;;;;;;;;5009773;28;20453;-72
2024/03/30 12:55:30;;;;;;;31.55;5.47;;;;;;;;;;5010205;28;20022;-72
2024/03/30 12:57:56;;;;;;;26.92;6.85;;;;;;;;;;5011966;28;20025;-71
2024/03/30 13:00:23;;;;;;;31.38;6.72;;;;;;;;;;5012379;28;20038;-73
2024/03/30 13:02:57;;;;;;;30.63;6.57;;;;;;;;;;5010099;28;20479;-71
2024/03/30 13:05:27;;;;;;;31.98;7.72;;;;;;;;;;5011225;28;20021;-71
2024/03/30 13:07:57;;;;;;;39.60;9.25;;;;;;;;;;5011227;28;20084;-72
2024/03/30 13:10:23;;;;;;;31.45;6.82;;;;;;;;;;5012041;28;20021;-73
2024/03/30 13:12:50;;;;;;;25.25;6.38;;;;;;;;;;5010927;28;20425;-72
2024/03/30 13:15:18;;;;;;;36.28;8.93;;;;;;;;;;5011268;28;20445;-72
2024/03/30 13:17:44;;;;;;;29.70;6.60;;;;;;;;;;5012699;28;20051;-71
2024/03/30 13:20:13;;;;;;;27.65;8.00;;;;;;;;;;5014555;28;20025;-71
2024/03/30 13:22:46;;;;;;;33.95;7.80;;;;;;;;;;5013775;28;20018;-72
2024/03/30 13:25:14;;;;;;;24.73;6.25;;;;;;;;;;5010339;28;20025;-72
2024/03/30 13:27:40;;;;;;;27.90;6.00;;;;;;;;;;5012120;28;20022;-72
2024/03/30 13:30:06;;;;;;;30.35;7.20;;;;;;;;;;5011933;28;20056;-72
2024/03/30 13:32:36;;;;;;;24.75;6.43;;;;;;;;;;5011663;28;20026;-72
2024/03/30 13:35:07;;;;;;;43.83;7.40;;;;;;;;;;5012384;28;20077;-72
2024/03/30 13:37:34;;;;;;;35.05;6.90;;;;;;;;;;5012325;28;20042;-73
2024/03/30 13:40:01;;;;;;;32.70;6.30;;;;;;;;;;5010401;28;20117;-72
2024/03/30 13:42:27;;;;;;;27.65;6.45;;;;;;;;;;5011539;28;20127;-72
2024/03/30 13:44:53;;;;;;;35.83;7.50;;;;;;;;;;5011620;28;20168;-72
2024/03/30 13:47:19;;;;;;;29.98;6.28;;;;;;;;;;5011680;28;20033;-72
2024/03/30 13:49:45;;;;;;;29.08;6.57;;;;;;;;;;5011530;28;20038;-72
2024/03/30 13:52:11;;;;;;;32.88;5.75;;;;;;;;;;5011551;28;20046;-72
2024/03/30 13:54:37;;;;;;;43.63;8.82;;;;;;;;;;5010020;28;20029;-72
2024/03/30 13:57:06;;;;;;;33.75;6.72;;;;;;;;;;5011559;28;20022;-72
2024/03/30 13:59:32;;;;;;;30.88;6.82;;;;;;;;;;5012668;28;20327;-72
2024/03/30 14:01:58;;;;;;;32.00;7.72;;;;;;;;;;5011297;28;20056;-73
2024/03/30 14:04:24;;;;;;;36.78;6.97;;;;;;;;;;5012935;28;20026;-77
2024/03/30 14:06:50;;;;;;;23.23;6.55;;;;;;;;;;5012225;28;20392;-72
2024/03/30 14:09:17;;;;;;;38.17;6.53;;;;;;;;;;5013666;28;20041;-72
2024/03/30 14:11:43;;;;;;;32.80;6.82;;;;;;;;;;5014286;28;20428;-73
2024/03/30 14:14:11;;;;;;;24.52;5.60;;;;;;;;;;5018286;28;20022;-72
2024/03/30 14:16:37;;;;;;;34.38;5.70;;;;;;;;;;5017994;28;20444;-72
2024/03/30 14:19:03;;;;;;;31.77;6.95;;;;;;;;;;5016929;28;20084;-72
2024/03/30 14:21:29;;;;;;;36.08;7.40;;;;;;;;;;5015645;28;20037;-73
2024/03/30 14:23:56;;;;;;;22.20;5.53;;;;;;;;;;5015487;28;20139;-72
2024/03/30 14:26:22;;;;;;;39.28;7.10;;;;;;;;;;5015367;28;20033;-70
2024/03/30 14:28:48;;;;;;;27.77;5.90;;;;;;;;;;5015086;28;20034;-73
2024/03/30 14:31:14;;;;;;;25.33;7.43;;;;;;;;;;5015306;28;20118;-72
2024/03/30 14:33:40;;;;;;;28.73;6.40;;;;;;;;;;5015545;28;20073;-71
2024/03/30 14:36:09;;;;;;;29.98;6.47;;;;;;;;;;5015199;28;20488;-73